sensor_id;sensor_type;location;lat;lon;timestamp;pressure;altitude;pressure_sealevel;temperature;humidity
62548;BME280;48602;45.192;5.722;2023-02-28T00:01:30;99369.03;;;4.34;53.21
62548;BME280;48602;45.192;5.722;2023-02-28T00:03:55;99367.25;;;4.36;53.39
62548;BME280;48602;45.192;5.722;2023-02-28T00:06:21;99364.63;;;4.38;53.42
62548;BME280;48602;45.192;5.722;2023-02-28T00:08:47;99369.84;;;4.38;53.15
62548;BME280;48602;45.192;5.722;2023-02-28T00:11:14;99371.56;;;4.39;53.25
62548;BME280;48602;45.192;5.722;2023-02-28T00:13:43;99370.69;;;4.40;53.34
62548;BME280;48602;45.192;5.722;2023-02-28T00:16:16;99374.19;;;4.37;53.14
62548;BME280;48602;45.192;5.722;2023-02-28T00:18:42;99375.94;;;4.38;53.33
62548;BME280;48602;45.192;5.722;2023-02-28T00:21:08;99370.69;;;4.40;53.45
62548;BME280;48602;45.192;5.722;2023-02-28T00:23:34;99368.97;;;4.40;53.55
62548;BME280;48602;45.192;5.722;2023-02-28T00:26:00;99372.44;;;4.41;53.54
62548;BME280;48602;45.192;5.722;2023-02-28T00:28:25;99375.91;;;4.41;53.37
62548;BME280;48602;45.192;5.722;2023-02-28T00:30:51;99364.59;;;4.42;53.72
62548;BME280;48602;45.192;5.722;2023-02-28T00:33:16;99370.66;;;4.43;53.54
62548;BME280;48602;45.192;5.722;2023-02-28T00:35:42;99364.59;;;4.41;53.52
62548;BME280;48602;45.192;5.722;2023-02-28T00:38:07;99373.28;;;4.41;53.37
62548;BME280;48602;45.192;5.722;2023-02-28T00:40:33;99367.22;;;4.41;53.56
62548;BME280;48602;45.192;5.722;2023-02-28T00:42:58;99364.59;;;4.42;53.56
62548;BME280;48602;45.192;5.722;2023-02-28T00:45:24;99357.59;;;4.44;53.82
62548;BME280;48602;45.192;5.722;2023-02-28T00:47:49;99359.34;;;4.45;53.78
62548;BME280;48602;45.192;5.722;2023-02-28T00:50:19;99355.84;;;4.46;53.64
62548;BME280;48602;45.192;5.722;2023-02-28T00:52:45;99358.47;;;4.46;53.59
62548;BME280;48602;45.192;5.722;2023-02-28T00:55:10;99361.94;;;4.45;53.67
62548;BME280;48602;45.192;5.722;2023-02-28T00:57:36;99369.78;;;4.45;53.74
62548;BME280;48602;45.192;5.722;2023-02-28T01:00:02;99363.69;;;4.45;53.90
62548;BME280;48602;45.192;5.722;2023-02-28T01:02:28;99365.44;;;4.43;54.16
62548;BME280;48602;45.192;5.722;2023-02-28T01:04:54;99362.84;;;4.43;54.00
62548;BME280;48602;45.192;5.722;2023-02-28T01:07:19;99358.47;;;4.43;53.66
62548;BME280;48602;45.192;5.722;2023-02-28T01:09:45;99365.47;;;4.41;54.06
62548;BME280;48602;45.192;5.722;2023-02-28T01:12:10;99367.19;;;4.42;53.94
62548;BME280;48602;45.192;5.722;2023-02-28T01:14:36;99369.84;;;4.39;53.83
62548;BME280;48602;45.192;5.722;2023-02-28T01:17:01;99368.97;;;4.39;54.26
62548;BME280;48602;45.192;5.722;2023-02-28T01:19:27;99375.09;;;4.36;54.23
62548;BME280;48602;45.192;5.722;2023-02-28T01:21:52;99369.03;;;4.34;54.01
62548;BME280;48602;45.192;5.722;2023-02-28T01:24:18;99374.25;;;4.34;54.32
62548;BME280;48602;45.192;5.722;2023-02-28T01:26:44;99367.31;;;4.35;54.33
62548;BME280;48602;45.192;5.722;2023-02-28T01:29:09;99369.06;;;4.33;54.29
62548;BME280;48602;45.192;5.722;2023-02-28T01:31:34;99369.09;;;4.30;54.66
62548;BME280;48602;45.192;5.722;2023-02-28T01:34:00;99364.75;;;4.29;54.56
62548;BME280;48602;45.192;5.722;2023-02-28T01:36:26;99364.78;;;4.26;54.41
62548;BME280;48602;45.192;5.722;2023-02-28T01:38:52;99362.19;;;4.22;54.73
62548;BME280;48602;45.192;5.722;2023-02-28T01:41:23;99363.94;;;4.20;54.98
62548;BME280;48602;45.192;5.722;2023-02-28T01:46:15;99367.47;;;4.18;55.32
62548;BME280;48602;45.192;5.722;2023-02-28T01:48:48;99369.22;;;4.17;55.10
62548;BME280;48602;45.192;5.722;2023-02-28T01:53:56;99371.88;;;4.14;55.51
62548;BME280;48602;45.192;5.722;2023-02-28T01:56:27;99371.03;;;4.11;55.27
62548;BME280;48602;45.192;5.722;2023-02-28T01:58:54;99363.22;;;4.09;55.23
62548;BME280;48602;45.192;5.722;2023-02-28T02:01:21;99370.16;;;4.09;55.34
62548;BME280;48602;45.192;5.722;2023-02-28T02:04:00;99367.59;;;4.06;55.30
62548;BME280;48602;45.192;5.722;2023-02-28T02:06:34;99363.31;;;4.02;55.59
62548;BME280;48602;45.192;5.722;2023-02-28T02:09:02;99366.78;;;4.01;55.35
62548;BME280;48602;45.192;5.722;2023-02-28T02:11:28;99377.25;;;3.98;55.76
62548;BME280;48602;45.192;5.722;2023-02-28T02:19:59;99365.09;;;3.94;55.74
62548;BME280;48602;45.192;5.722;2023-02-28T02:25:34;99365.13;;;3.89;55.97
62548;BME280;48602;45.192;5.722;2023-02-28T02:31:25;99363.41;;;3.90;56.17
62548;BME280;48602;45.192;5.722;2023-02-28T02:34:14;99366.88;;;3.90;55.97
62548;BME280;48602;45.192;5.722;2023-02-28T02:36:49;99362.53;;;3.91;56.26
62548;BME280;48602;45.192;5.722;2023-02-28T02:39:24;99361.66;;;3.92;56.14
62548;BME280;48602;45.192;5.722;2023-02-28T02:41:56;99363.38;;;3.91;56.24
62548;BME280;48602;45.192;5.722;2023-02-28T02:44:33;99358.19;;;3.90;56.37
62548;BME280;48602;45.192;5.722;2023-02-28T02:47:07;99357.31;;;3.91;56.35
62548;BME280;48602;45.192;5.722;2023-02-28T02:49:36;99355.56;;;3.91;56.46
62548;BME280;48602;45.192;5.722;2023-02-28T02:52:06;99360.75;;;3.93;56.72
62548;BME280;48602;45.192;5.722;2023-02-28T02:54:36;99351.19;;;3.93;56.68
62548;BME280;48602;45.192;5.722;2023-02-28T02:57:06;99352.06;;;3.94;56.51
62548;BME280;48602;45.192;5.722;2023-02-28T02:59:35;99348.59;;;3.93;56.32
62548;BME280;48602;45.192;5.722;2023-02-28T03:02:06;99346.88;;;3.92;56.46
62548;BME280;48602;45.192;5.722;2023-02-28T03:04:40;99352.97;;;3.91;56.41
62548;BME280;48602;45.192;5.722;2023-02-28T03:07:08;99346.88;;;3.89;56.53
62548;BME280;48602;45.192;5.722;2023-02-28T03:09:34;99346.03;;;3.89;56.72
62548;BME280;48602;45.192;5.722;2023-02-28T03:12:01;99353.84;;;3.89;56.57
62548;BME280;48602;45.192;5.722;2023-02-28T03:23:16;99352.13;;;3.86;56.77
62548;BME280;48602;45.192;5.722;2023-02-28T03:28:41;99353.84;;;3.87;56.99
62548;BME280;48602;45.192;5.722;2023-02-28T03:31:38;99354.72;;;3.88;56.64
62548;BME280;48602;45.192;5.722;2023-02-28T03:34:14;99352.13;;;3.88;57.04
62548;BME280;48602;45.192;5.722;2023-02-28T03:36:46;99355.59;;;3.88;57.00
62548;BME280;48602;45.192;5.722;2023-02-28T03:39:24;99356.47;;;3.85;57.21
62548;BME280;48602;45.192;5.722;2023-02-28T03:42:01;99365.16;;;3.86;57.18
62548;BME280;48602;45.192;5.722;2023-02-28T03:44:32;99357.38;;;3.84;57.14
62548;BME280;48602;45.192;5.722;2023-02-28T03:47:13;99360.88;;;3.83;57.17
62548;BME280;48602;45.192;5.722;2023-02-28T03:50:18;99357.41;;;3.80;57.42
62548;BME280;48602;45.192;5.722;2023-02-28T03:52:40;99361.78;;;3.79;57.61
62548;BME280;48602;45.192;5.722;2023-02-28T03:55:12;99366.97;;;3.79;57.50
62548;BME280;48602;45.192;5.722;2023-02-28T04:00:31;99370.50;;;3.75;57.36
62548;BME280;48602;45.192;5.722;2023-02-28T04:02:59;99360.94;;;3.74;57.45
62548;BME280;48602;45.192;5.722;2023-02-28T04:05:25;99368.78;;;3.70;57.47
62548;BME280;48602;45.192;5.722;2023-02-28T04:07:51;99365.34;;;3.68;57.95
62548;BME280;48602;45.192;5.722;2023-02-28T04:10:17;99369.66;;;3.69;57.90
62548;BME280;48602;45.192;5.722;2023-02-28T04:12:43;99367.09;;;3.67;58.00
62548;BME280;48602;45.192;5.722;2023-02-28T04:15:08;99368.84;;;3.65;57.90
62548;BME280;48602;45.192;5.722;2023-02-28T04:17:35;99374.09;;;3.62;58.10
62548;BME280;48602;45.192;5.722;2023-02-28T04:20:01;99376.72;;;3.59;58.19
62548;BME280;48602;45.192;5.722;2023-02-28T04:22:26;99382.81;;;3.57;58.23
62548;BME280;48602;45.192;5.722;2023-02-28T04:24:52;99387.16;;;3.58;58.26
62548;BME280;48602;45.192;5.722;2023-02-28T04:27:19;99384.53;;;3.58;58.05
62548;BME280;48602;45.192;5.722;2023-02-28T04:29:45;99390.59;;;3.60;58.66
62548;BME280;48602;45.192;5.722;2023-02-28T04:32:11;99388.88;;;3.57;58.54
62548;BME280;48602;45.192;5.722;2023-02-28T04:34:36;99392.44;;;3.52;58.79
62548;BME280;48602;45.192;5.722;2023-02-28T04:37:02;99397.66;;;3.48;58.63
62548;BME280;48602;45.192;5.722;2023-02-28T04:39:28;99400.28;;;3.45;58.34
62548;BME280;48602;45.192;5.722;2023-02-28T04:41:55;99401.16;;;3.43;58.89
62548;BME280;48602;45.192;5.722;2023-02-28T04:44:21;99394.22;;;3.40;58.56
62548;BME280;48602;45.192;5.722;2023-02-28T04:46:48;99407.28;;;3.36;58.94
62548;BME280;48602;45.192;5.722;2023-02-28T04:49:14;99409.06;;;3.32;58.80
62548;BME280;48602;45.192;5.722;2023-02-28T04:51:41;99401.25;;;3.32;59.12
62548;BME280;48602;45.192;5.722;2023-02-28T04:54:07;99404.72;;;3.34;58.74
62548;BME280;48602;45.192;5.722;2023-02-28T04:56:32;99404.72;;;3.34;59.13
62548;BME280;48602;45.192;5.722;2023-02-28T04:58:58;99407.31;;;3.31;59.31
62548;BME280;48602;45.192;5.722;2023-02-28T05:01:31;99403.88;;;3.28;59.35
62548;BME280;48602;45.192;5.722;2023-02-28T05:03:59;99410.81;;;3.27;59.13
62548;BME280;48602;45.192;5.722;2023-02-28T05:06:27;99408.22;;;3.29;59.58
62548;BME280;48602;45.192;5.722;2023-02-28T05:08:53;99414.28;;;3.28;59.37
62548;BME280;48602;45.192;5.722;2023-02-28T05:13:51;99420.38;;;3.28;59.16
62548;BME280;48602;45.192;5.722;2023-02-28T05:16:18;99416.03;;;3.29;59.23
62548;BME280;48602;45.192;5.722;2023-02-28T05:18:43;99413.41;;;3.29;59.33
62548;BME280;48602;45.192;5.722;2023-02-28T05:23:56;99417.78;;;3.25;59.50
62548;BME280;48602;45.192;5.722;2023-02-28T05:26:23;99420.38;;;3.25;59.56
62548;BME280;48602;45.192;5.722;2023-02-28T05:28:49;99413.44;;;3.23;59.59
62548;BME280;48602;45.192;5.722;2023-02-28T05:31:14;99426.47;;;3.23;60.00
62548;BME280;48602;45.192;5.722;2023-02-28T05:33:40;99417.78;;;3.21;60.02
62548;BME280;48602;45.192;5.722;2023-02-28T05:36:06;99423.00;;;3.19;60.27
62548;BME280;48602;45.192;5.722;2023-02-28T05:38:32;99416.13;;;3.15;59.98
62548;BME280;48602;45.192;5.722;2023-02-28T05:40:57;99417.88;;;3.10;60.40
62548;BME280;48602;45.192;5.722;2023-02-28T05:43:23;99417.88;;;3.07;60.52
62548;BME280;48602;45.192;5.722;2023-02-28T05:45:49;99418.75;;;3.04;60.54
62548;BME280;48602;45.192;5.722;2023-02-28T05:48:14;99420.47;;;3.07;60.35
62548;BME280;48602;45.192;5.722;2023-02-28T05:50:39;99411.81;;;3.05;60.45
62548;BME280;48602;45.192;5.722;2023-02-28T05:53:06;99411.81;;;3.03;60.65
62548;BME280;48602;45.192;5.722;2023-02-28T05:55:31;99413.59;;;3.01;60.31
62548;BME280;48602;45.192;5.722;2023-02-28T05:57:56;99417.94;;;2.98;60.58
62548;BME280;48602;45.192;5.722;2023-02-28T06:00:22;99415.34;;;2.95;61.14
62548;BME280;48602;45.192;5.722;2023-02-28T06:02:48;99412.75;;;2.89;61.32
62548;BME280;48602;45.192;5.722;2023-02-28T06:05:16;99422.31;;;2.85;61.27
62548;BME280;48602;45.192;5.722;2023-02-28T06:07:43;99425.81;;;2.84;61.53
62548;BME280;48602;45.192;5.722;2023-02-28T06:10:12;99428.44;;;2.83;61.98
62548;BME280;48602;45.192;5.722;2023-02-28T06:12:38;99425.84;;;2.76;61.52
62548;BME280;48602;45.192;5.722;2023-02-28T06:15:04;99425.84;;;2.73;61.75
62548;BME280;48602;45.192;5.722;2023-02-28T06:17:30;99434.53;;;2.71;62.76
62548;BME280;48602;45.192;5.722;2023-02-28T06:19:55;99444.13;;;2.63;61.82
62548;BME280;48602;45.192;5.722;2023-02-28T06:22:21;99444.13;;;2.60;61.92
62548;BME280;48602;45.192;5.722;2023-02-28T06:24:46;99444.13;;;2.57;62.62
62548;BME280;48602;45.192;5.722;2023-02-28T06:27:11;99448.47;;;2.53;62.01
62548;BME280;48602;45.192;5.722;2023-02-28T06:29:37;99451.97;;;2.48;62.03
62548;BME280;48602;45.192;5.722;2023-02-28T06:32:05;99458.03;;;2.47;62.06
62548;BME280;48602;45.192;5.722;2023-02-28T06:34:31;99455.44;;;2.47;62.73
62548;BME280;48602;45.192;5.722;2023-02-28T06:36:59;99453.69;;;2.44;62.13
62548;BME280;48602;45.192;5.722;2023-02-28T06:39:30;99464.97;;;2.43;62.80
62548;BME280;48602;45.192;5.722;2023-02-28T06:41:56;99465.84;;;2.42;62.27
62548;BME280;48602;45.192;5.722;2023-02-28T06:44:22;99466.72;;;2.41;62.18
62548;BME280;48602;45.192;5.722;2023-02-28T06:46:49;99465.84;;;2.40;61.88
62548;BME280;48602;45.192;5.722;2023-02-28T06:49:14;99466.72;;;2.39;61.89
62548;BME280;48602;45.192;5.722;2023-02-28T06:51:41;99477.13;;;2.38;62.29
62548;BME280;48602;45.192;5.722;2023-02-28T06:54:08;99474.50;;;2.38;62.29
62548;BME280;48602;45.192;5.722;2023-02-28T06:56:35;99470.19;;;2.38;62.35
62548;BME280;48602;45.192;5.722;2023-02-28T06:59:00;99469.31;;;2.39;62.15
62548;BME280;48602;45.192;5.722;2023-02-28T07:01:26;99483.19;;;2.38;62.13
62548;BME280;48602;45.192;5.722;2023-02-28T07:03:53;99488.38;;;2.40;61.94
62548;BME280;48602;45.192;5.722;2023-02-28T07:06:20;99486.66;;;2.43;61.80
62548;BME280;48602;45.192;5.722;2023-02-28T07:08:48;99490.13;;;2.47;61.72
62548;BME280;48602;45.192;5.722;2023-02-28T07:11:15;99493.59;;;2.48;61.57
62548;BME280;48602;45.192;5.722;2023-02-28T07:13:40;99500.53;;;2.50;61.34
62548;BME280;48602;45.192;5.722;2023-02-28T07:16:09;99506.56;;;2.55;61.73
62548;BME280;48602;45.192;5.722;2023-02-28T07:18:35;99503.97;;;2.57;61.13
62548;BME280;48602;45.192;5.722;2023-02-28T07:21:06;99510.91;;;2.62;61.24
62548;BME280;48602;45.192;5.722;2023-02-28T07:23:32;99510.03;;;2.66;61.49
62548;BME280;48602;45.192;5.722;2023-02-28T07:25:57;99509.16;;;2.69;61.13
62548;BME280;48602;45.192;5.722;2023-02-28T07:28:23;99507.41;;;2.72;61.18
62548;BME280;48602;45.192;5.722;2023-02-28T07:31:03;99510.00;;;2.75;61.45
62548;BME280;48602;45.192;5.722;2023-02-28T07:33:29;99509.13;;;2.78;60.77
62548;BME280;48602;45.192;5.722;2023-02-28T07:36:00;99503.94;;;2.81;60.68
62548;BME280;48602;45.192;5.722;2023-02-28T07:38:26;99510.88;;;2.84;60.94
62548;BME280;48602;45.192;5.722;2023-02-28T07:40:52;99519.53;;;2.84;60.51
62548;BME280;48602;45.192;5.722;2023-02-28T07:43:17;99511.75;;;2.83;60.68
62548;BME280;48602;45.192;5.722;2023-02-28T07:45:42;99510.88;;;2.82;60.46
62548;BME280;48602;45.192;5.722;2023-02-28T07:48:08;99516.03;;;2.85;60.82
62548;BME280;48602;45.192;5.722;2023-02-28T07:50:35;99511.69;;;2.90;60.33
62548;BME280;48602;45.192;5.722;2023-02-28T07:53:00;99515.16;;;2.95;60.34
62548;BME280;48602;45.192;5.722;2023-02-28T07:55:26;99511.66;;;3.02;60.21
62548;BME280;48602;45.192;5.722;2023-02-28T07:57:52;99520.31;;;3.06;60.30
62548;BME280;48602;45.192;5.722;2023-02-28T08:00:17;99523.78;;;3.12;60.11
62548;BME280;48602;45.192;5.722;2023-02-28T08:02:43;99521.16;;;3.17;59.62
62548;BME280;48602;45.192;5.722;2023-02-28T08:05:08;99523.78;;;3.15;59.47
62548;BME280;48602;45.192;5.722;2023-02-28T08:07:34;99529.88;;;3.11;59.66
62548;BME280;48602;45.192;5.722;2023-02-28T08:10:00;99524.66;;;3.10;59.70
62548;BME280;48602;45.192;5.722;2023-02-28T08:12:25;99528.13;;;3.07;59.26
62548;BME280;48602;45.192;5.722;2023-02-28T08:14:51;99524.66;;;3.08;59.59
62548;BME280;48602;45.192;5.722;2023-02-28T08:17:16;99526.38;;;3.14;59.41
62548;BME280;48602;45.192;5.722;2023-02-28T08:19:45;99526.34;;;3.22;59.40
62548;BME280;48602;45.192;5.722;2023-02-28T08:22:10;99528.06;;;3.24;59.30
62548;BME280;48602;45.192;5.722;2023-02-28T08:24:36;99531.53;;;3.31;59.34
62548;BME280;48602;45.192;5.722;2023-02-28T08:27:01;99529.72;;;3.40;59.13
62548;BME280;48602;45.192;5.722;2023-02-28T08:29:26;99531.44;;;3.49;59.02
62548;BME280;48602;45.192;5.722;2023-02-28T08:31:52;99531.38;;;3.60;58.97
62548;BME280;48602;45.192;5.722;2023-02-28T08:34:22;99537.38;;;3.69;58.74
62548;BME280;48602;45.192;5.722;2023-02-28T08:36:48;99536.50;;;3.76;58.35
62548;BME280;48602;45.192;5.722;2023-02-28T08:39:13;99533.84;;;3.84;58.35
62548;BME280;48602;45.192;5.722;2023-02-28T08:41:39;99537.22;;;3.97;58.07
62548;BME280;48602;45.192;5.722;2023-02-28T08:44:04;99529.31;;;4.06;58.15
62548;BME280;48602;45.192;5.722;2023-02-28T08:46:30;99533.56;;;4.20;57.67
62548;BME280;48602;45.192;5.722;2023-02-28T08:48:56;99530.00;;;4.31;57.02
62548;BME280;48602;45.192;5.722;2023-02-28T08:51:25;99529.13;;;4.35;56.93
62548;BME280;48602;45.192;5.722;2023-02-28T08:54:03;99529.91;;;4.41;57.18
62548;BME280;48602;45.192;5.722;2023-02-28T08:56:28;99533.31;;;4.51;56.79
62548;BME280;48602;45.192;5.722;2023-02-28T09:01:37;99526.97;;;4.75;57.21
62548;BME280;48602;45.192;5.722;2023-02-28T09:04:02;99529.50;;;4.84;56.63
62548;BME280;48602;45.192;5.722;2023-02-28T09:06:28;99535.50;;;4.94;56.49
62548;BME280;48602;45.192;5.722;2023-02-28T09:08:56;99536.28;;;5.02;56.71
62548;BME280;48602;45.192;5.722;2023-02-28T09:11:23;99539.75;;;5.02;56.74
62548;BME280;48602;45.192;5.722;2023-02-28T09:13:49;99536.22;;;5.05;56.40
62548;BME280;48602;45.192;5.722;2023-02-28T09:16:16;99539.63;;;5.13;56.54
62548;BME280;48602;45.192;5.722;2023-02-28T09:18:42;99540.44;;;5.19;56.26
62548;BME280;48602;45.192;5.722;2023-02-28T09:21:10;99540.31;;;5.30;56.10
62548;BME280;48602;45.192;5.722;2023-02-28T09:23:38;99537.56;;;5.38;55.28
62548;BME280;48602;45.192;5.722;2023-02-28T09:26:04;99539.28;;;5.42;55.46
62548;BME280;48602;45.192;5.722;2023-02-28T09:28:30;99544.44;;;5.46;55.54
62548;BME280;48602;45.192;5.722;2023-02-28T09:30:56;99547.00;;;5.51;55.52
62548;BME280;48602;45.192;5.722;2023-02-28T09:33:24;99551.31;;;5.53;55.12
62548;BME280;48602;45.192;5.722;2023-02-28T09:35:51;99546.91;;;5.58;55.20
62548;BME280;48602;45.192;5.722;2023-02-28T09:38:22;99546.03;;;5.58;55.11
62548;BME280;48602;45.192;5.722;2023-02-28T09:40:53;99546.88;;;5.60;55.12
62548;BME280;48602;45.192;5.722;2023-02-28T09:43:35;99548.53;;;5.67;54.79
62548;BME280;48602;45.192;5.722;2023-02-28T09:46:27;99551.94;;;5.72;54.16
62548;BME280;48602;45.192;5.722;2023-02-28T09:48:55;99550.16;;;5.74;54.20
62548;BME280;48602;45.192;5.722;2023-02-28T09:51:33;99556.28;;;5.73;54.03
62548;BME280;48602;45.192;5.722;2023-02-28T09:54:01;99557.16;;;5.74;54.38
62548;BME280;48602;45.192;5.722;2023-02-28T09:56:49;99556.13;;;5.85;54.60
62548;BME280;48602;45.192;5.722;2023-02-28T09:59:22;99542.97;;;5.93;54.19
62548;BME280;48602;45.192;5.722;2023-02-28T10:04:59;99554.00;;;6.13;53.96
62548;BME280;48602;45.192;5.722;2023-02-28T10:08:07;99555.53;;;6.26;53.80
62548;BME280;48602;45.192;5.722;2023-02-28T10:10:40;99558.94;;;6.32;53.50
62548;BME280;48602;45.192;5.722;2023-02-28T10:13:22;99558.03;;;6.36;52.60
62548;BME280;48602;45.192;5.722;2023-02-28T10:15:55;99548.59;;;6.24;52.81
62548;BME280;48602;45.192;5.722;2023-02-28T10:21:39;99556.47;;;6.21;53.10
62548;BME280;48602;45.192;5.722;2023-02-28T10:24:29;99555.72;;;6.14;52.34
62548;BME280;48602;45.192;5.722;2023-02-28T10:27:21;99553.41;;;5.94;52.51
62548;BME280;48602;45.192;5.722;2023-02-28T10:29:49;99565.88;;;5.73;52.98
62548;BME280;48602;45.192;5.722;2023-02-28T10:32:27;99556.44;;;5.63;53.04
62548;BME280;48602;45.192;5.722;2023-02-28T10:35:19;99552.97;;;5.60;53.33
62548;BME280;48602;45.192;5.722;2023-02-28T10:37:57;99559.03;;;5.66;53.49
62548;BME280;48602;45.192;5.722;2023-02-28T10:42:58;99564.91;;;5.81;53.37
62548;BME280;48602;45.192;5.722;2023-02-28T10:45:25;99570.13;;;5.83;53.22
62548;BME280;48602;45.192;5.722;2023-02-28T10:47:57;99571.13;;;5.73;53.35
62548;BME280;48602;45.192;5.722;2023-02-28T10:55:35;99565.88;;;5.74;53.75
62548;BME280;48602;45.192;5.722;2023-02-28T10:58:01;99567.56;;;5.77;53.50
62548;BME280;48602;45.192;5.722;2023-02-28T11:00:34;99571.94;;;5.76;53.45
62548;BME280;48602;45.192;5.722;2023-02-28T11:03:01;99573.69;;;5.76;53.42
62548;BME280;48602;45.192;5.722;2023-02-28T11:05:35;99569.38;;;5.72;53.41
62548;BME280;48602;45.192;5.722;2023-02-28T11:08:17;99556.28;;;5.73;53.26
62548;BME280;48602;45.192;5.722;2023-02-28T11:10:48;99564.09;;;5.76;53.46
62548;BME280;48602;45.192;5.722;2023-02-28T11:13:28;99554.38;;;5.86;53.37
62548;BME280;48602;45.192;5.722;2023-02-28T11:15:57;99556.00;;;5.96;53.10
62548;BME280;48602;45.192;5.722;2023-02-28T11:18:51;99542.00;;;6.00;53.22
62548;BME280;48602;45.192;5.722;2023-02-28T11:21:31;99540.16;;;6.04;53.00
62548;BME280;48602;45.192;5.722;2023-02-28T11:24:15;99536.66;;;6.06;52.80
62548;BME280;48602;45.192;5.722;2023-02-28T11:26:46;99533.09;;;6.10;53.17
62548;BME280;48602;45.192;5.722;2023-02-28T11:34:37;99524.00;;;6.34;52.07
62548;BME280;48602;45.192;5.722;2023-02-28T11:37:04;99512.63;;;6.37;52.61
62548;BME280;48602;45.192;5.722;2023-02-28T11:39:32;99512.50;;;6.43;52.49
62548;BME280;48602;45.192;5.722;2023-02-28T11:47:15;99513.03;;;6.63;52.01
62548;BME280;48602;45.192;5.722;2023-02-28T11:52:21;99493.81;;;6.62;51.42
62548;BME280;48602;45.192;5.722;2023-02-28T12:05:33;99500.13;;;6.00;51.92
62548;BME280;48602;45.192;5.722;2023-02-28T12:08:23;99494.97;;;5.94;52.04
62548;BME280;48602;45.192;5.722;2023-02-28T12:19:38;99491.78;;;5.71;52.53
62548;BME280;48602;45.192;5.722;2023-02-28T12:27:22;99494.59;;;5.58;52.51
62548;BME280;48602;45.192;5.722;2023-02-28T12:29:57;99491.13;;;5.58;52.63
62548;BME280;48602;45.192;5.722;2023-02-28T12:32:29;99486.72;;;5.60;52.72
62548;BME280;48602;45.192;5.722;2023-02-28T12:35:02;99495.47;;;5.59;52.48
62548;BME280;48602;45.192;5.722;2023-02-28T12:37:32;99492.88;;;5.57;52.30
62548;BME280;48602;45.192;5.722;2023-02-28T12:40:07;99482.50;;;5.51;52.89
62548;BME280;48602;45.192;5.722;2023-02-28T12:42:48;99492.00;;;5.55;52.88
62548;BME280;48602;45.192;5.722;2023-02-28T12:45:20;99484.06;;;5.63;53.21
62548;BME280;48602;45.192;5.722;2023-02-28T12:47:52;99482.19;;;5.71;52.95
62548;BME280;48602;45.192;5.722;2023-02-28T12:50:21;99476.94;;;5.74;52.64
62548;BME280;48602;45.192;5.722;2023-02-28T12:53:08;99467.31;;;5.75;52.58
62548;BME280;48602;45.192;5.722;2023-02-28T12:58:40;99457.75;;;5.74;52.47
62548;BME280;48602;45.192;5.722;2023-02-28T13:09:59;99435.06;;;5.74;52.48
62548;BME280;48602;45.192;5.722;2023-02-28T13:12:32;99430.66;;;5.78;52.76
62548;BME280;48602;45.192;5.722;2023-02-28T13:15:08;99424.53;;;5.80;52.06
62548;BME280;48602;45.192;5.722;2023-02-28T13:17:48;99420.16;;;5.81;52.22
62548;BME280;48602;45.192;5.722;2023-02-28T13:20:21;99426.19;;;5.86;52.13
62548;BME280;48602;45.192;5.722;2023-02-28T13:22:50;99423.53;;;5.89;51.96
62548;BME280;48602;45.192;5.722;2023-02-28T13:27:58;99419.97;;;5.94;51.79
62548;BME280;48602;45.192;5.722;2023-02-28T13:33:33;99423.38;;;6.00;52.50
62548;BME280;48602;45.192;5.722;2023-02-28T13:38:44;99420.59;;;6.07;51.91
62548;BME280;48602;45.192;5.722;2023-02-28T13:44:20;99418.03;;;6.04;52.08
62548;BME280;48602;45.192;5.722;2023-02-28T13:51:49;99425.88;;;6.04;52.61
62548;BME280;48602;45.192;5.722;2023-02-28T13:57:56;99422.28;;;6.11;52.14
62548;BME280;48602;45.192;5.722;2023-02-28T14:03:58;99429.38;;;6.05;52.12
62548;BME280;48602;45.192;5.722;2023-02-28T14:08:47;99422.34;;;6.08;52.54
62548;BME280;48602;45.192;5.722;2023-02-28T14:11:35;99428.41;;;6.10;52.17
62548;BME280;48602;45.192;5.722;2023-02-28T14:14:02;99418.81;;;6.11;52.36
62548;BME280;48602;45.192;5.722;2023-02-28T14:16:40;99412.66;;;6.13;52.14
62548;BME280;48602;45.192;5.722;2023-02-28T14:19:19;99410.94;;;6.12;52.27
62548;BME280;48602;45.192;5.722;2023-02-28T14:32:58;99414.22;;;6.22;51.70
62548;BME280;48602;45.192;5.722;2023-02-28T14:35:45;99422.16;;;6.19;51.75
62548;BME280;48602;45.192;5.722;2023-02-28T14:38:23;99423.16;;;6.12;52.16
62548;BME280;48602;45.192;5.722;2023-02-28T14:40:52;99411.91;;;6.05;52.19
62548;BME280;48602;45.192;5.722;2023-02-28T14:43:22;99423.44;;;5.95;52.59
62548;BME280;48602;45.192;5.722;2023-02-28T14:45:52;99419.22;;;5.85;52.75
62548;BME280;48602;45.192;5.722;2023-02-28T14:48:20;99427.19;;;5.76;52.59
62548;BME280;48602;45.192;5.722;2023-02-28T14:50:55;99431.72;;;5.68;52.99
62548;BME280;48602;45.192;5.722;2023-02-28T14:53:24;99429.19;;;5.61;53.08
62548;BME280;48602;45.192;5.722;2023-02-28T14:55:51;99436.22;;;5.55;53.49
62548;BME280;48602;45.192;5.722;2023-02-28T14:58:27;99436.38;;;5.46;53.41
62548;BME280;48602;45.192;5.722;2023-02-28T15:00:55;99416.41;;;5.40;53.70
62548;BME280;48602;45.192;5.722;2023-02-28T15:05:55;99439.19;;;5.34;54.09
62548;BME280;48602;45.192;5.722;2023-02-28T15:08:21;99428.75;;;5.32;54.49
62548;BME280;48602;45.192;5.722;2023-02-28T15:10:59;99427.88;;;5.32;53.96
62548;BME280;48602;45.192;5.722;2023-02-28T15:13:46;99454.94;;;5.28;54.31
62548;BME280;48602;45.192;5.722;2023-02-28T15:16:29;99429.72;;;5.23;53.94
62548;BME280;48602;45.192;5.722;2023-02-28T15:19:02;99455.84;;;5.23;54.61
62548;BME280;48602;45.192;5.722;2023-02-28T15:21:32;99446.31;;;5.21;54.63
62548;BME280;48602;45.192;5.722;2023-02-28T15:26:34;99450.75;;;5.14;54.47
62548;BME280;48602;45.192;5.722;2023-02-28T15:29:07;99456.03;;;5.11;54.86
62548;BME280;48602;45.192;5.722;2023-02-28T15:31:37;99440.38;;;5.08;55.18
62548;BME280;48602;45.192;5.722;2023-02-28T15:34:06;99447.38;;;5.06;55.00
62548;BME280;48602;45.192;5.722;2023-02-28T15:36:34;99440.41;;;5.05;55.18
62548;BME280;48602;45.192;5.722;2023-02-28T15:39:16;99438.69;;;5.03;55.13
62548;BME280;48602;45.192;5.722;2023-02-28T15:41:43;99430.94;;;4.98;55.14
62548;BME280;48602;45.192;5.722;2023-02-28T15:44:27;99433.56;;;4.98;55.55
62548;BME280;48602;45.192;5.722;2023-02-28T15:47:01;99431.81;;;4.97;55.71
62548;BME280;48602;45.192;5.722;2023-02-28T15:49:38;99433.56;;;4.97;55.46